createdAt,value
2018-11-06T00:00:49.903Z,1.00
2018-11-06T00:03:24.557Z,1.00
2018-11-06T00:05:53.734Z,1.00
2018-11-06T00:08:23.043Z,1.00
2018-11-06T00:10:51.712Z,1.00
2018-11-06T00:13:20.705Z,1.00
2018-11-06T00:15:49.759Z,1.00
2018-11-06T00:18:18.977Z,1.00
2018-11-06T00:20:47.706Z,1.00
2018-11-06T00:23:16.559Z,1.00
2018-11-06T00:25:45.567Z,1.00
2018-11-06T00:28:14.577Z,1.00
2018-11-06T00:30:43.281Z,1.00
2018-11-06T00:33:12.327Z,1.00
2018-11-06T00:35:41.017Z,1.00
2018-11-06T00:38:09.533Z,1.00
2018-11-06T00:40:38.560Z,1.00
2018-11-06T00:43:07.273Z,1.00
2018-11-06T00:45:35.964Z,1.00
2018-11-06T00:48:04.385Z,1.00
2018-11-06T00:50:33.484Z,1.00
2018-11-06T00:53:02.510Z,1.00
2018-11-06T00:55:31.226Z,1.00
2018-11-06T00:58:00.279Z,1.00
2018-11-06T01:00:28.961Z,1.00
2018-11-06T01:02:57.653Z,1.00
2018-11-06T01:05:26.753Z,1.00
2018-11-06T01:07:55.413Z,1.00
2018-11-06T01:10:24.439Z,1.00
2018-11-06T01:12:53.486Z,1.00
2018-11-06T01:15:22.505Z,1.00
2018-11-06T01:17:51.552Z,1.00
2018-11-06T01:20:20.234Z,1.00
2018-11-06T01:22:48.921Z,1.00
2018-11-06T01:25:17.609Z,1.00
2018-11-06T01:27:46.956Z,1.00
2018-11-06T01:30:17.952Z,1.00
2018-11-06T01:32:46.980Z,1.00
2018-11-06T01:35:16.158Z,1.00
2018-11-06T01:37:46.090Z,1.00
2018-11-06T01:40:16.282Z,1.00
2018-11-06T01:42:45.902Z,1.00
2018-11-06T01:45:16.230Z,1.00
2018-11-06T01:47:45.248Z,1.00
2018-11-06T01:50:14.636Z,1.00
2018-11-06T01:52:44.371Z,1.90
2018-11-06T01:55:13.061Z,1.00
2018-11-06T01:57:42.070Z,5.20
2018-11-06T02:00:13.103Z,7.10
2018-11-06T02:02:42.044Z,6.00
2018-11-06T02:05:12.381Z,6.20
2018-11-06T02:07:42.629Z,10.80
2018-11-06T02:10:12.082Z,12.00
2018-11-06T02:12:40.995Z,15.40
2018-11-06T02:15:09.806Z,14.40
2018-11-06T02:17:39.610Z,14.10
2018-11-06T02:20:08.684Z,16.50
2018-11-06T02:22:37.198Z,16.10
2018-11-06T02:25:06.323Z,17.10
2018-11-06T02:27:35.480Z,18.80
2018-11-06T02:30:04.107Z,19.30
2018-11-06T02:32:33.256Z,18.20
2018-11-06T02:35:02.409Z,20.60
2018-11-06T02:37:31.410Z,21.00
2018-11-06T02:40:00.653Z,20.70
2018-11-06T02:42:29.753Z,24.60
2018-11-06T02:44:58.829Z,26.90
2018-11-06T02:47:27.533Z,29.20
2018-11-06T02:49:56.266Z,29.50
2018-11-06T02:52:24.937Z,28.80
2018-11-06T02:54:53.959Z,29.80
2018-11-06T02:57:23.316Z,33.30
2018-11-06T02:59:52.478Z,36.10
2018-11-06T03:02:21.177Z,36.50
2018-11-06T03:04:50.363Z,38.40
2018-11-06T03:07:20.178Z,38.10
2018-11-06T03:09:49.216Z,43.20
2018-11-06T03:12:17.893Z,42.70
2018-11-06T03:14:46.927Z,44.00
2018-11-06T03:17:15.951Z,43.10
2018-11-06T03:19:44.677Z,41.50
2018-11-06T03:22:13.350Z,45.20
2018-11-06T03:24:42.025Z,45.70
2018-11-06T03:27:10.791Z,43.50
2018-11-06T03:29:39.666Z,45.30
2018-11-06T03:32:08.238Z,44.60
2018-11-06T03:34:37.294Z,45.80
2018-11-06T03:37:06.274Z,49.10
2018-11-06T03:39:35.466Z,49.70
2018-11-06T03:42:04.667Z,54.60
2018-11-06T03:44:33.365Z,55.70
2018-11-06T03:47:02.634Z,58.60
2018-11-06T03:49:31.182Z,62.10
2018-11-06T03:52:00.217Z,66.30
2018-11-06T03:54:28.905Z,68.40
2018-11-06T03:56:57.602Z,68.60
2018-11-06T03:59:26.285Z,68.90
2018-11-06T04:01:55.371Z,73.10
2018-11-06T04:04:24.057Z,74.10
2018-11-06T04:06:52.744Z,76.90
2018-11-06T04:09:21.817Z,76.80
2018-11-06T04:11:50.834Z,76.20
2018-11-06T04:14:19.964Z,79.20
2018-11-06T04:16:48.352Z,82.00
2018-11-06T04:19:17.766Z,82.50
2018-11-06T04:21:46.816Z,83.50
2018-11-06T04:24:15.798Z,84.90
2018-11-06T04:26:44.848Z,85.50
2018-11-06T04:29:13.869Z,86.20
2018-11-06T04:31:42.795Z,90.00
2018-11-06T04:34:11.967Z,90.10
2018-11-06T04:36:41.329Z,90.00
2018-11-06T04:39:11.293Z,88.50
2018-11-06T04:41:40.200Z,90.60
2018-11-06T04:44:09.516Z,91.70
2018-11-06T04:46:38.731Z,93.30
2018-11-06T04:49:08.284Z,94.30
2018-11-06T04:51:36.837Z,94.30
2018-11-06T04:54:05.277Z,94.60
2018-11-06T04:56:34.270Z,93.90
2018-11-06T04:59:02.934Z,95.30
2018-11-06T05:01:32.769Z,96.10
2018-11-06T05:04:01.863Z,97.10
2018-11-06T05:06:30.981Z,98.00
2018-11-06T05:08:59.440Z,96.90
2018-11-06T05:11:29.016Z,97.10
2018-11-06T05:13:59.076Z,97.20
2018-11-06T05:16:28.694Z,97.50
2018-11-06T05:18:58.513Z,98.50
2018-11-06T05:21:27.562Z,98.20
2018-11-06T05:23:56.772Z,99.10
2018-11-06T05:26:25.492Z,99.80
2018-11-06T05:28:55.101Z,99.80
2018-11-06T05:31:24.035Z,99.90
2018-11-06T05:33:53.553Z,99.90
2018-11-06T05:36:22.589Z,99.90
2018-11-06T05:38:51.300Z,99.90
2018-11-06T05:41:20.582Z,99.90
2018-11-06T05:43:49.297Z,99.90
2018-11-06T05:46:18.015Z,99.90
2018-11-06T05:48:47.046Z,99.90
2018-11-06T05:51:16.093Z,99.90
2018-11-06T05:53:45.177Z,99.90
2018-11-06T05:56:13.907Z,99.90
2018-11-06T05:58:42.434Z,99.90
2018-11-06T06:01:11.251Z,99.90
2018-11-06T06:03:40.287Z,99.90
2018-11-06T06:06:09.063Z,99.90
2018-11-06T06:08:37.809Z,99.90
2018-11-06T06:11:06.902Z,99.90
2018-11-06T06:13:35.917Z,99.90
2018-11-06T06:16:04.393Z,99.90
2018-11-06T06:18:33.409Z,99.90
2018-11-06T06:21:02.431Z,99.90
2018-11-06T06:23:32.201Z,99.90
2018-11-06T06:26:01.200Z,99.90
2018-11-06T06:28:30.287Z,99.90
2018-11-06T06:30:59.197Z,99.90
2018-11-06T06:33:27.559Z,99.90
2018-11-06T06:35:56.379Z,99.90
2018-11-06T06:38:24.739Z,99.90
2018-11-06T06:40:53.930Z,99.90
2018-11-06T06:43:22.789Z,99.90
2018-11-06T06:45:51.811Z,99.90
2018-11-06T06:48:20.554Z,99.90
2018-11-06T06:50:49.265Z,99.90
2018-11-06T06:53:18.343Z,99.90
2018-11-06T06:55:47.242Z,99.90
2018-11-06T06:58:16.225Z,99.90
2018-11-06T07:00:45.226Z,99.90
2018-11-06T07:03:14.262Z,99.90
2018-11-06T07:05:42.889Z,99.90
2018-11-06T07:08:11.641Z,99.90
2018-11-06T07:10:40.868Z,99.90
2018-11-06T07:13:10.015Z,99.90
2018-11-06T07:15:39.115Z,99.90
2018-11-06T07:18:08.565Z,99.90
2018-11-06T07:20:37.233Z,99.90
2018-11-06T07:23:06.241Z,99.90
2018-11-06T07:25:35.045Z,99.90
2018-11-06T07:28:03.456Z,96.20
2018-11-06T07:30:32.165Z,95.10
2018-11-06T07:33:01.640Z,92.10
2018-11-06T07:35:30.561Z,78.00
2018-11-06T07:37:59.281Z,70.60
2018-11-06T07:40:28.363Z,69.50
2018-11-06T07:42:57.595Z,66.00
2018-11-06T07:45:26.644Z,64.90
2018-11-06T07:47:55.683Z,58.40
2018-11-06T07:50:24.444Z,51.80
2018-11-06T07:52:53.531Z,50.10
2018-11-06T07:55:22.245Z,48.20
2018-11-06T07:57:51.035Z,48.70
2018-11-06T08:00:24.844Z,42.10
2018-11-06T08:02:53.589Z,46.50
2018-11-06T08:05:22.682Z,43.90
2018-11-06T08:07:52.162Z,41.90
2018-11-06T08:10:20.980Z,29.40
2018-11-06T08:12:51.481Z,28.10
2018-11-06T08:15:20.175Z,18.00
2018-11-06T08:17:49.993Z,21.90
2018-11-06T08:20:18.540Z,23.50
2018-11-06T08:22:47.598Z,19.70
2018-11-06T08:25:16.869Z,14.80
2018-11-06T08:27:46.189Z,15.90
2018-11-06T08:30:15.039Z,12.40
2018-11-06T08:32:44.270Z,5.30
2018-11-06T08:35:14.706Z,1.00
2018-11-06T08:37:43.602Z,1.00
2018-11-06T08:40:14.829Z,1.00
2018-11-06T08:42:43.737Z,1.00
2018-11-06T08:45:13.549Z,1.00
2018-11-06T08:47:43.671Z,1.00
2018-11-06T08:50:15.614Z,1.00
2018-11-06T08:52:44.674Z,1.00
2018-11-06T08:55:14.567Z,1.00
2018-11-06T08:57:44.348Z,1.00
2018-11-06T09:00:14.810Z,1.00
2018-11-06T09:02:44.239Z,1.00
2018-11-06T09:05:13.887Z,1.00
2018-11-06T09:07:42.452Z,1.00
2018-11-06T09:10:12.085Z,1.00
2018-11-06T09:12:40.680Z,1.00
2018-11-06T09:15:10.369Z,1.00
2018-11-06T09:17:39.073Z,1.00
2018-11-06T09:20:08.074Z,99.90
2018-11-06T09:22:36.161Z,1.00
2018-11-06T09:25:05.617Z,1.00
2018-11-06T09:27:34.112Z,1.00
2018-11-06T09:30:02.556Z,75.70
2018-11-06T09:32:31.541Z,99.90
2018-11-06T09:35:00.390Z,1.40
2018-11-06T09:37:29.180Z,99.90
2018-11-06T09:39:57.946Z,99.90
2018-11-06T09:42:26.683Z,27.70
2018-11-06T09:44:55.119Z,1.00
2018-11-06T09:47:24.069Z,1.00
2018-11-06T09:49:52.909Z,1.00
2018-11-06T09:52:21.325Z,1.00
2018-11-06T09:54:50.057Z,1.00
2018-11-06T09:57:18.485Z,99.90
2018-11-06T09:59:47.227Z,99.90
2018-11-06T10:02:16.018Z,99.90
2018-11-06T10:04:44.805Z,99.90
2018-11-06T10:07:13.802Z,48.70
2018-11-06T10:09:42.240Z,99.90
2018-11-06T10:12:11.014Z,99.90
2018-11-06T10:14:39.463Z,1.00
2018-11-06T10:17:07.637Z,1.00
2018-11-06T10:19:36.408Z,99.90
2018-11-06T10:22:05.339Z,25.80
2018-11-06T10:24:34.113Z,99.90
2018-11-06T10:27:02.497Z,1.00
2018-11-06T10:29:31.274Z,99.90
2018-11-06T10:31:59.757Z,99.90
2018-11-06T10:34:28.583Z,99.90
2018-11-06T10:36:57.030Z,1.00
2018-11-06T10:39:25.822Z,99.90
2018-11-06T10:41:54.293Z,48.20
2018-11-06T10:44:22.739Z,1.00
2018-11-06T10:46:51.577Z,99.90
2018-11-06T10:49:20.013Z,1.00
2018-11-06T10:51:48.817Z,99.90
2018-11-06T10:54:17.713Z,99.90
2018-11-06T10:56:46.503Z,99.90
2018-11-06T10:59:15.257Z,99.90
2018-11-06T11:01:49.577Z,1.00
2018-11-06T11:04:20.744Z,90.50
2018-11-06T11:06:49.801Z,1.00
2018-11-06T11:09:18.585Z,99.90
2018-11-06T11:11:47.025Z,1.00
2018-11-06T11:14:15.774Z,99.90
2018-11-06T11:16:44.184Z,1.00
2018-11-06T11:19:12.629Z,1.00
2018-11-06T11:21:41.042Z,99.90
2018-11-06T11:24:09.822Z,37.30
2018-11-06T11:26:38.321Z,99.90
2018-11-06T11:29:07.195Z,1.00
2018-11-06T11:31:35.648Z,1.00
2018-11-06T11:34:03.782Z,1.00
2018-11-06T11:36:32.743Z,1.00
2018-11-06T11:39:01.167Z,1.00
2018-11-06T11:41:29.937Z,91.10
2018-11-06T11:44:00.440Z,99.90
2018-11-06T11:46:28.877Z,1.00
2018-11-06T11:48:57.243Z,1.00
2018-11-06T11:51:25.987Z,99.90
2018-11-06T11:53:54.736Z,31.00
2018-11-06T11:56:23.501Z,1.00
2018-11-06T11:58:51.925Z,1.00
2018-11-06T12:01:20.323Z,1.00
2018-11-06T12:03:48.709Z,1.00
2018-11-06T12:06:17.430Z,1.00
2018-11-06T12:08:46.169Z,1.00
2018-11-06T12:11:14.636Z,1.00
2018-11-06T12:13:43.042Z,1.00
2018-11-06T12:16:12.179Z,1.00
2018-11-06T12:18:40.592Z,1.00
2018-11-06T12:21:09.322Z,1.00
2018-11-06T12:23:37.945Z,1.00
2018-11-06T12:26:06.937Z,1.00
2018-11-06T12:28:35.675Z,1.00
2018-11-06T12:31:04.506Z,1.00
2018-11-06T12:33:32.923Z,1.00
2018-11-06T12:36:01.358Z,1.00
2018-11-06T12:38:31.321Z,1.00
2018-11-06T12:40:59.777Z,1.00
2018-11-06T12:43:28.802Z,1.00
2018-11-06T12:45:57.717Z,1.00
2018-11-06T12:48:26.426Z,1.00
2018-11-06T12:50:55.155Z,1.00
2018-11-06T12:53:23.671Z,1.00
2018-11-06T12:55:52.416Z,1.00
2018-11-06T12:58:21.169Z,1.00
2018-11-06T13:00:49.981Z,1.00
2018-11-06T13:03:18.758Z,1.00
2018-11-06T13:05:47.545Z,1.00
2018-11-06T13:08:16.365Z,1.00
2018-11-06T13:10:45.165Z,1.00
2018-11-06T13:13:13.896Z,1.00
2018-11-06T13:15:42.421Z,1.00
2018-11-06T13:18:11.497Z,1.00
2018-11-06T13:20:40.241Z,1.00
2018-11-06T13:23:09.030Z,1.00
2018-11-06T13:25:37.458Z,1.00
2018-11-06T13:28:06.159Z,1.00
2018-11-06T13:30:34.760Z,1.00
2018-11-06T13:33:03.667Z,1.00
2018-11-06T13:35:32.456Z,1.00
2018-11-06T13:38:01.201Z,1.00
2018-11-06T13:40:29.597Z,1.00
2018-11-06T13:42:58.696Z,1.00
2018-11-06T13:51:09.790Z,1.00
2018-11-06T13:53:39.460Z,1.00
2018-11-06T13:56:07.841Z,1.00
2018-11-06T13:58:36.628Z,1.00
2018-11-06T14:01:05.579Z,1.00
2018-11-06T14:03:34.090Z,1.00
2018-11-06T14:06:02.711Z,1.00
2018-11-06T14:08:31.441Z,1.00
2018-11-06T14:11:00.197Z,1.00
2018-11-06T14:13:29.249Z,99.90
2018-11-06T14:15:57.994Z,1.00
2018-11-06T14:18:27.788Z,1.00
2018-11-06T14:20:56.606Z,99.90
2018-11-06T14:23:25.199Z,99.90
2018-11-06T14:25:53.592Z,9.10
2018-11-06T14:28:22.485Z,1.00
2018-11-06T14:30:51.238Z,1.00
2018-11-06T14:33:20.029Z,99.90
2018-11-06T14:35:48.815Z,99.90
2018-11-06T14:38:17.746Z,1.00
2018-11-06T14:40:46.502Z,1.00
2018-11-06T14:43:15.281Z,99.90
2018-11-06T14:45:44.020Z,1.00
2018-11-06T14:48:12.859Z,99.90
2018-11-06T14:50:41.791Z,1.00
2018-11-06T14:53:10.540Z,1.00
2018-11-06T14:55:39.322Z,1.00
2018-11-06T14:58:08.872Z,1.00
2018-11-06T15:00:37.308Z,9.50
2018-11-06T15:03:06.355Z,1.00
2018-11-06T15:05:34.781Z,99.90
2018-11-06T15:08:03.381Z,99.90
2018-11-06T15:10:31.849Z,99.90
2018-11-06T15:13:00.278Z,99.90
2018-11-06T15:15:29.057Z,99.90
2018-11-06T15:17:57.798Z,1.00
2018-11-06T15:20:26.518Z,1.00
2018-11-06T15:22:55.297Z,1.00
2018-11-06T15:25:23.828Z,1.00
2018-11-06T15:27:52.606Z,1.00
2018-11-06T15:30:20.725Z,1.00
2018-11-06T15:32:49.150Z,1.00
2018-11-06T15:35:19.096Z,1.00
2018-11-06T15:37:47.183Z,1.00
2018-11-06T15:40:16.663Z,1.00
2018-11-06T15:42:45.743Z,1.00
2018-11-06T15:45:15.070Z,1.00
2018-11-06T15:47:44.398Z,1.00
2018-11-06T15:50:14.894Z,1.00
2018-11-06T15:52:44.193Z,1.00
2018-11-06T15:55:12.766Z,1.00
2018-11-06T15:57:41.221Z,1.00
2018-11-06T16:00:12.549Z,1.00
2018-11-06T16:02:41.678Z,1.00
2018-11-06T16:05:10.468Z,1.00
2018-11-06T16:07:39.610Z,1.00
2018-11-06T16:10:10.634Z,1.00
2018-11-06T16:12:39.098Z,1.00
2018-11-06T16:15:08.254Z,1.00
2018-11-06T16:17:37.393Z,1.00
2018-11-06T16:20:06.830Z,1.00
2018-11-06T16:22:35.347Z,1.00
2018-11-06T16:25:03.439Z,1.00
2018-11-06T16:27:31.879Z,1.00
2018-11-06T16:30:00.302Z,1.00
2018-11-06T16:32:28.697Z,1.00
2018-11-06T16:34:57.458Z,1.00
2018-11-06T16:37:26.568Z,1.00
2018-11-06T16:39:54.923Z,1.00
2018-11-06T16:42:23.826Z,1.00
2018-11-06T16:44:52.577Z,1.00
2018-11-06T16:47:21.306Z,1.00
2018-11-06T16:49:49.973Z,3.70
2018-11-06T16:52:18.398Z,7.40
2018-11-06T16:54:46.777Z,4.60
2018-11-06T16:57:15.490Z,5.90
2018-11-06T16:59:43.982Z,9.50
2018-11-06T17:02:12.930Z,11.40
2018-11-06T17:04:41.678Z,11.30
2018-11-06T17:07:10.740Z,12.00
2018-11-06T17:09:39.793Z,14.70
2018-11-06T17:12:08.497Z,16.30
2018-11-06T17:14:37.823Z,17.10
2018-11-06T17:17:06.768Z,16.80
2018-11-06T17:19:35.805Z,21.50
2018-11-06T17:22:04.585Z,23.70
2018-11-06T17:24:34.020Z,27.10
2018-11-06T17:27:02.723Z,30.00
2018-11-06T17:29:31.117Z,35.00
2018-11-06T17:32:00.173Z,39.60
2018-11-06T17:34:29.178Z,44.50
2018-11-06T17:36:58.333Z,45.30
2018-11-06T17:39:27.116Z,45.10
2018-11-06T17:41:55.710Z,45.90
2018-11-06T17:44:24.795Z,48.00
2018-11-06T17:46:53.866Z,51.50
2018-11-06T17:49:23.021Z,53.60
2018-11-06T17:51:51.492Z,56.20
2018-11-06T17:54:20.226Z,58.00
2018-11-06T17:56:49.311Z,58.80
2018-11-06T17:59:18.419Z,58.40
2018-11-06T18:01:47.487Z,60.20
2018-11-06T18:04:16.625Z,62.00
2018-11-06T18:06:45.810Z,63.10
2018-11-06T18:09:14.974Z,67.20
2018-11-06T18:11:44.032Z,68.10
2018-11-06T18:14:12.735Z,69.00
2018-11-06T18:16:41.900Z,70.00
2018-11-06T18:19:11.118Z,72.10
2018-11-06T18:21:39.531Z,75.80
2018-11-06T18:24:08.287Z,75.50
2018-11-06T18:26:37.370Z,76.40
2018-11-06T18:29:06.313Z,78.40
2018-11-06T18:31:35.393Z,78.10
2018-11-06T18:34:04.619Z,78.50
2018-11-06T18:36:33.339Z,77.80
2018-11-06T18:39:02.243Z,75.80
2018-11-06T18:41:31.605Z,77.20
2018-11-06T18:44:00.840Z,80.20
2018-11-06T18:46:30.151Z,78.00
2018-11-06T18:48:58.924Z,75.50
2018-11-06T18:51:28.028Z,77.70
2018-11-06T18:53:57.133Z,77.40
2018-11-06T18:56:25.844Z,78.10
2018-11-06T18:58:54.877Z,79.00
2018-11-06T19:01:23.929Z,81.00
2018-11-06T19:03:53.734Z,82.80
2018-11-06T19:06:22.797Z,81.30
2018-11-06T19:08:52.224Z,82.20
2018-11-06T19:11:21.491Z,82.20
2018-11-06T19:13:50.875Z,87.50
2018-11-06T19:16:20.136Z,83.00
2018-11-06T19:18:49.347Z,87.30
2018-11-06T19:21:18.090Z,87.40
2018-11-06T19:23:47.256Z,89.50
2018-11-06T19:26:16.276Z,89.40
2018-11-06T19:28:45.327Z,91.00
2018-11-06T19:31:14.406Z,91.90
2018-11-06T19:33:43.464Z,92.00
2018-11-06T19:36:12.201Z,91.50
2018-11-06T19:38:40.836Z,91.80
2018-11-06T19:41:09.941Z,91.90
2018-11-06T19:43:38.674Z,91.90
2018-11-06T19:46:07.929Z,92.70
2018-11-06T19:48:36.723Z,93.30
2018-11-06T19:51:05.501Z,92.70
2018-11-06T19:53:34.634Z,92.90
2018-11-06T19:56:03.973Z,94.10
2018-11-06T19:58:32.804Z,94.00
2018-11-06T20:01:01.940Z,94.60
2018-11-06T20:03:31.198Z,95.40
2018-11-06T20:06:00.502Z,95.30
2018-11-06T20:08:29.636Z,95.40
2018-11-06T20:10:58.553Z,95.00
2018-11-06T20:13:27.239Z,95.10
2018-11-06T20:15:55.710Z,95.10
2018-11-06T20:18:24.912Z,94.30
2018-11-06T20:20:54.076Z,94.50
2018-11-06T20:23:23.051Z,93.40
2018-11-06T20:25:52.044Z,94.60
2018-11-06T20:28:21.072Z,94.50
2018-11-06T20:30:50.101Z,95.30
2018-11-06T20:33:19.299Z,94.60
2018-11-06T20:35:48.022Z,94.50
2018-11-06T20:38:17.081Z,95.70
2018-11-06T20:40:45.831Z,95.00
2018-11-06T20:43:14.549Z,93.50
2018-11-06T20:45:43.909Z,96.30
2018-11-06T20:48:12.965Z,96.50
2018-11-06T20:50:41.908Z,96.90
2018-11-06T20:53:10.970Z,97.40
2018-11-06T20:55:39.829Z,97.40
2018-11-06T20:58:08.446Z,98.30
2018-11-06T21:00:37.157Z,99.20
2018-11-06T21:03:05.629Z,98.90
2018-11-06T21:05:34.393Z,99.60
2018-11-06T21:08:03.558Z,99.10
2018-11-06T21:10:32.625Z,98.40
2018-11-06T21:13:01.719Z,98.50
2018-11-06T21:15:30.653Z,98.90
2018-11-06T21:18:00.066Z,99.70
2018-11-06T21:20:28.919Z,99.00
2018-11-06T21:22:57.964Z,99.80
2018-11-06T21:25:26.824Z,99.20
2018-11-06T21:27:55.655Z,99.90
2018-11-06T21:30:24.376Z,99.90
2018-11-06T21:32:53.921Z,99.90
2018-11-06T21:35:22.953Z,99.90
2018-11-06T21:37:51.662Z,99.90
2018-11-06T21:40:21.473Z,99.90
2018-11-06T21:42:50.681Z,99.90
2018-11-06T21:45:19.593Z,99.90
2018-11-06T21:47:49.593Z,99.90
2018-11-06T21:50:19.762Z,99.90
2018-11-06T21:52:48.842Z,99.90
2018-11-06T21:55:18.870Z,99.90
2018-11-06T21:57:48.074Z,99.90
2018-11-06T22:00:18.646Z,99.90
2018-11-06T22:02:47.384Z,99.90
2018-11-06T22:05:17.639Z,99.90
2018-11-06T22:07:46.529Z,99.90
2018-11-06T22:10:18.007Z,99.90
2018-11-06T22:12:47.450Z,99.90
2018-11-06T22:15:17.396Z,99.90
2018-11-06T22:17:46.149Z,99.90
2018-11-06T22:20:16.067Z,99.90
2018-11-06T22:22:45.694Z,99.90
2018-11-06T22:25:14.365Z,99.90
2018-11-06T22:27:43.701Z,99.90
2018-11-06T22:30:13.322Z,99.90
2018-11-06T22:32:43.160Z,99.90
2018-11-06T22:35:12.834Z,99.90
2018-11-06T22:37:41.723Z,99.90
2018-11-06T22:40:12.062Z,99.90
2018-11-06T22:42:41.251Z,99.90
2018-11-06T22:45:11.478Z,99.90
2018-11-06T22:47:40.384Z,99.90
2018-11-06T22:50:10.193Z,99.90
2018-11-06T22:52:39.248Z,99.90
2018-11-06T22:55:07.824Z,99.90
2018-11-06T22:57:36.733Z,99.90
2018-11-06T23:00:11.678Z,99.90
2018-11-06T23:02:40.823Z,99.90
2018-11-06T23:05:09.318Z,99.90
2018-11-06T23:07:43.060Z,99.90
2018-11-06T23:10:12.290Z,99.90
2018-11-06T23:12:42.314Z,99.90
2018-11-06T23:15:10.801Z,99.90
2018-11-06T23:17:39.320Z,99.90
2018-11-06T23:20:08.760Z,99.90
2018-11-06T23:22:37.610Z,99.90
2018-11-06T23:25:06.728Z,99.90
2018-11-06T23:27:36.017Z,99.90
2018-11-06T23:30:06.541Z,99.90
2018-11-06T23:32:35.685Z,99.90
2018-11-06T23:35:04.275Z,99.90
2018-11-06T23:37:33.314Z,99.90
2018-11-06T23:40:02.918Z,99.90
2018-11-06T23:42:31.965Z,99.90
2018-11-06T23:45:01.152Z,99.90
2018-11-06T23:47:30.177Z,99.90
2018-11-06T23:49:59.217Z,99.90
2018-11-06T23:52:28.033Z,99.90
2018-11-06T23:54:57.068Z,99.90
2018-11-06T23:57:26.429Z,99.90
2018-11-06T23:59:55.492Z,99.90
